createdAt,value
2023-03-08T00:00:31.077Z,95795.69
2023-03-08T00:02:59.049Z,95780.22
2023-03-08T00:05:28.418Z,95780.50
2023-03-08T00:07:56.772Z,95806.47
2023-03-08T00:10:24.984Z,95788.69
2023-03-08T00:12:52.761Z,95781.19
2023-03-08T00:15:20.667Z,95798.28
2023-03-08T00:17:48.485Z,95816.75
2023-03-08T00:20:16.816Z,95809.22
2023-03-08T00:22:45.980Z,95829.34
2023-03-08T00:25:16.423Z,95834.56
2023-03-08T00:27:44.268Z,95835.53
2023-03-08T00:30:13.878Z,95827.00
2023-03-08T00:32:42.031Z,95827.88
2023-03-08T00:35:10.912Z,95806.94
2023-03-08T00:37:38.646Z,95825.38
2023-03-08T00:40:09.992Z,95810.88
2023-03-08T00:42:37.783Z,95796.66
2023-03-08T00:45:06.368Z,95785.41
2023-03-08T00:47:35.754Z,95763.50
2023-03-08T00:50:03.932Z,95765.34
2023-03-08T00:52:31.717Z,95727.25
2023-03-08T00:54:59.496Z,95724.75
2023-03-08T00:57:28.661Z,95731.28
2023-03-08T00:59:56.405Z,95743.34
2023-03-08T01:02:24.264Z,95731.59
2023-03-08T01:04:52.008Z,95725.69
2023-03-08T01:07:19.852Z,95712.00
2023-03-08T01:09:47.709Z,95690.13
2023-03-08T01:12:15.554Z,95666.28
2023-03-08T01:14:44.733Z,95677.44
2023-03-08T01:17:12.435Z,95672.22
2023-03-08T01:19:40.378Z,95657.88
2023-03-08T01:22:08.430Z,95644.50
2023-03-08T01:24:36.197Z,95640.25
2023-03-08T01:27:04.005Z,95634.25
2023-03-08T01:29:31.752Z,95638.63
2023-03-08T01:32:00.873Z,95601.28
2023-03-08T01:34:28.876Z,95614.84
2023-03-08T01:36:56.674Z,95620.06
2023-03-08T01:39:24.508Z,95607.31
2023-03-08T01:41:54.031Z,95578.47
2023-03-08T01:44:23.249Z,95554.84
2023-03-08T01:46:52.434Z,95542.81
2023-03-08T01:49:24.797Z,95551.59
2023-03-08T01:51:57.845Z,95538.06
2023-03-08T01:54:30.023Z,95524.25
2023-03-08T01:57:02.656Z,95505.00
2023-03-08T01:59:33.744Z,95539.19
2023-03-08T02:02:03.520Z,95522.78
2023-03-08T02:04:32.601Z,95522.63
2023-03-08T02:07:00.486Z,95503.34
2023-03-08T02:09:28.646Z,95507.47
2023-03-08T02:12:00.164Z,95492.94
2023-03-08T02:14:28.638Z,95496.53
2023-03-08T02:16:56.516Z,95496.69
2023-03-08T02:19:28.709Z,95498.16
2023-03-08T02:21:57.998Z,95484.78
2023-03-08T02:24:27.244Z,95471.28
2023-03-08T02:27:02.551Z,95473.88
2023-03-08T02:29:30.440Z,95476.94
2023-03-08T02:31:58.817Z,95474.69
2023-03-08T02:34:27.326Z,95465.41
2023-03-08T02:36:55.063Z,95470.63
2023-03-08T02:39:22.865Z,95467.06
2023-03-08T02:41:52.061Z,95457.78
2023-03-08T02:44:19.867Z,95457.78
2023-03-08T02:46:47.672Z,95475.50
2023-03-08T02:49:15.454Z,95468.84
2023-03-08T02:51:43.261Z,95454.50
2023-03-08T02:54:11.175Z,95439.38
2023-03-08T02:56:39.052Z,95440.84
2023-03-08T02:59:08.234Z,95450.28
2023-03-08T03:01:37.143Z,95438.56
2023-03-08T03:04:05.062Z,95434.16
2023-03-08T03:06:34.673Z,95424.88
2023-03-08T03:09:02.457Z,95420.66
2023-03-08T03:11:30.169Z,95432.69
2023-03-08T03:13:59.736Z,95405.66
2023-03-08T03:16:29.297Z,95384.50
2023-03-08T03:18:57.983Z,95385.47
2023-03-08T03:21:26.048Z,95379.59
2023-03-08T03:23:55.403Z,95368.53
2023-03-08T03:26:25.315Z,95361.72
2023-03-08T03:28:53.372Z,95362.69
2023-03-08T03:31:23.317Z,95350.16
2023-03-08T03:33:53.160Z,95325.38
2023-03-08T03:36:23.231Z,95332.13
2023-03-08T03:38:51.533Z,95327.22
2023-03-08T03:41:21.777Z,95327.22
2023-03-08T03:43:50.578Z,95325.44
2023-03-08T03:46:20.672Z,95351.63
2023-03-08T03:48:48.555Z,95338.59
2023-03-08T03:51:19.744Z,95353.41
2023-03-08T03:53:48.670Z,95366.75
2023-03-08T03:56:18.707Z,95372.63
2023-03-08T03:58:47.439Z,95338.59
2023-03-08T04:01:17.377Z,95360.09
2023-03-08T04:03:45.725Z,95350.00
2023-03-08T04:06:16.231Z,95342.34
2023-03-08T04:08:46.000Z,95334.72
2023-03-08T04:11:16.632Z,95350.97
2023-03-08T04:13:45.050Z,95345.13
2023-03-08T04:16:14.660Z,95356.66
2023-03-08T04:18:43.099Z,95383.03
2023-03-08T04:21:11.665Z,95372.78
2023-03-08T04:23:39.904Z,95368.53
2023-03-08T04:26:09.229Z,95361.88
2023-03-08T04:28:37.362Z,95346.75
2023-03-08T04:31:13.763Z,95364.47
2023-03-08T04:33:41.762Z,95346.75
2023-03-08T04:36:09.852Z,95349.19
2023-03-08T04:38:37.710Z,95367.88
2023-03-08T04:41:11.718Z,95360.09
2023-03-08T04:43:42.132Z,95339.50
2023-03-08T04:46:09.926Z,95354.88
2023-03-08T04:48:37.671Z,95354.38
2023-03-08T04:51:07.262Z,95364.31
2023-03-08T04:53:36.294Z,95363.66
2023-03-08T04:56:04.394Z,95355.19
2023-03-08T04:58:32.512Z,95353.56
2023-03-08T05:01:01.617Z,95355.19
2023-03-08T05:03:29.437Z,95356.00
2023-03-08T05:05:57.494Z,95372.13
2023-03-08T05:08:25.279Z,95374.41
2023-03-08T05:11:00.271Z,95377.31
2023-03-08T05:13:30.398Z,95347.72
2023-03-08T05:15:58.294Z,95336.34
2023-03-08T05:18:27.521Z,95326.56
2023-03-08T05:20:56.672Z,95312.09
2023-03-08T05:23:25.719Z,95299.03
2023-03-08T05:25:54.716Z,95306.38
2023-03-08T05:28:24.125Z,95315.50
2023-03-08T05:30:51.997Z,95333.41
2023-03-08T05:33:19.822Z,95334.53
2023-03-08T05:35:55.398Z,95341.03
2023-03-08T05:38:23.706Z,95314.53
2023-03-08T05:40:52.224Z,95289.47
2023-03-08T05:43:20.815Z,95311.28
2023-03-08T05:45:55.901Z,95303.78
2023-03-08T05:48:24.006Z,95315.66
2023-03-08T05:50:51.902Z,95304.47
2023-03-08T05:53:21.578Z,95297.75
2023-03-08T05:55:49.597Z,95302.78
2023-03-08T05:58:17.852Z,95304.59
2023-03-08T06:00:45.685Z,95267.66
2023-03-08T06:03:13.875Z,95261.34
2023-03-08T06:05:41.839Z,95282.63
2023-03-08T06:08:09.582Z,95283.44
2023-03-08T06:10:38.822Z,95290.44
2023-03-08T06:13:06.641Z,95293.69
2023-03-08T06:15:36.512Z,95282.63
2023-03-08T06:18:05.059Z,95291.75
2023-03-08T06:20:32.881Z,95287.66
2023-03-08T06:23:00.680Z,95289.47
2023-03-08T06:25:28.414Z,95254.31
2023-03-08T06:27:57.636Z,95277.75
2023-03-08T06:30:25.490Z,95274.19
2023-03-08T06:32:53.258Z,95268.97
2023-03-08T06:35:21.061Z,95293.69
2023-03-08T06:37:48.851Z,95299.84
2023-03-08T06:40:17.106Z,95291.09
2023-03-08T06:42:44.884Z,95296.28
2023-03-08T06:45:14.666Z,95306.38
2023-03-08T06:47:42.454Z,95283.28
2023-03-08T06:50:11.840Z,95283.44
2023-03-08T06:52:39.591Z,95283.44
2023-03-08T06:55:08.406Z,95288.78
2023-03-08T06:57:36.247Z,95296.94
2023-03-08T07:00:04.702Z,95297.91
2023-03-08T07:02:33.793Z,95278.25
2023-03-08T07:05:01.550Z,95284.25
2023-03-08T07:07:29.434Z,95280.19
2023-03-08T07:09:58.047Z,95297.09
2023-03-08T07:12:25.887Z,95291.09
2023-03-08T07:14:54.397Z,95286.34
2023-03-08T07:17:22.262Z,95285.22
2023-03-08T07:19:51.419Z,95309.78
2023-03-08T07:22:19.173Z,95316.47
2023-03-08T07:24:49.793Z,95308.16
2023-03-08T07:27:17.632Z,95317.44
2023-03-08T07:29:45.443Z,95302.28
2023-03-08T07:32:13.266Z,95313.06
2023-03-08T07:34:41.193Z,95304.75
2023-03-08T07:37:13.816Z,95322.50
2023-03-08T07:39:41.701Z,95314.84
2023-03-08T07:42:09.948Z,95315.13
2023-03-08T07:44:38.257Z,95304.75
2023-03-08T07:47:06.480Z,95311.41
2023-03-08T07:49:34.546Z,95301.47
2023-03-08T07:52:02.652Z,95288.66
2023-03-08T07:54:31.786Z,95286.84
2023-03-08T07:56:59.591Z,95284.41
2023-03-08T07:59:27.399Z,95293.69
2023-03-08T08:01:55.317Z,95320.88
2023-03-08T08:04:23.471Z,95319.09
2023-03-08T08:06:51.379Z,95314.84
2023-03-08T08:09:19.360Z,95298.72
2023-03-08T08:11:48.610Z,95338.59
2023-03-08T08:14:16.538Z,95359.59
2023-03-08T08:16:44.394Z,95362.34
2023-03-08T08:19:12.446Z,95357.13
2023-03-08T08:21:40.216Z,95341.84
2023-03-08T08:24:09.346Z,95334.06
2023-03-08T08:26:37.302Z,95351.94
2023-03-08T08:29:06.682Z,95375.03
2023-03-08T08:31:34.916Z,95323.31
2023-03-08T08:34:03.116Z,95329.81
2023-03-08T08:36:31.048Z,95353.88
2023-03-08T08:38:58.978Z,95333.41
2023-03-08T08:41:28.008Z,95377.31
2023-03-08T08:43:58.899Z,95371.47
2023-03-08T08:46:28.838Z,95392.41
2023-03-08T08:48:57.032Z,95418.81
2023-03-08T08:51:24.989Z,95376.31
2023-03-08T08:53:53.675Z,95384.97
2023-03-08T08:56:27.210Z,95409.53
2023-03-08T08:58:56.237Z,95415.53
2023-03-08T09:01:26.464Z,95435.75
2023-03-08T09:03:55.832Z,95420.91
2023-03-08T09:06:25.798Z,95424.00
2023-03-08T09:08:55.702Z,95433.31
2023-03-08T09:11:25.189Z,95392.75
2023-03-08T09:13:53.936Z,95403.66
2023-03-08T09:16:24.179Z,95425.50
2023-03-08T09:18:53.121Z,95414.72
2023-03-08T09:21:22.282Z,95426.44
2023-03-08T09:23:50.124Z,95455.78
2023-03-08T09:26:17.909Z,95474.66
2023-03-08T09:28:45.900Z,95489.66
2023-03-08T09:31:17.638Z,95519.59
2023-03-08T09:33:48.362Z,95540.47
2023-03-08T09:36:16.677Z,95548.41
2023-03-08T09:38:48.555Z,95558.38
2023-03-08T09:41:35.953Z,95553.47
2023-03-08T09:44:17.378Z,95566.84
2023-03-08T09:46:49.959Z,95586.38
2023-03-08T09:49:23.166Z,95602.06
2023-03-08T09:51:58.889Z,95630.22
2023-03-08T09:54:29.108Z,95661.69
2023-03-08T09:56:57.307Z,95632.25
2023-03-08T09:59:32.764Z,95680.28
2023-03-08T10:02:05.783Z,95659.75
2023-03-08T10:04:43.141Z,95653.19
2023-03-08T10:07:22.415Z,95647.97
2023-03-08T10:10:01.686Z,95672.31
2023-03-08T10:12:35.619Z,95666.59
2023-03-08T10:15:06.810Z,95696.94
2023-03-08T10:17:42.570Z,95687.63
2023-03-08T10:20:20.151Z,95734.09
2023-03-08T10:22:52.449Z,95758.72
2023-03-08T10:25:25.048Z,95769.69
2023-03-08T10:27:55.592Z,95778.16
2023-03-08T10:30:27.416Z,95821.22
2023-03-08T10:33:00.726Z,95807.47
2023-03-08T10:35:34.168Z,95814.69
2023-03-08T10:38:02.004Z,95814.53
2023-03-08T10:40:31.603Z,95827.41
2023-03-08T10:43:05.609Z,95830.69
2023-03-08T10:45:33.894Z,95774.06
2023-03-08T10:48:03.406Z,95807.84
2023-03-08T10:50:33.079Z,95817.97
2023-03-08T10:53:10.876Z,95819.75
2023-03-08T10:55:44.822Z,95831.66
2023-03-08T10:58:29.393Z,95841.09
2023-03-08T11:00:58.595Z,95793.78
2023-03-08T11:03:28.036Z,95792.50
2023-03-08T11:05:58.626Z,95805.53
2023-03-08T11:08:29.562Z,95791.84
2023-03-08T11:11:07.978Z,95815.50
2023-03-08T11:13:38.010Z,95785.97
2023-03-08T11:16:16.185Z,95774.06
2023-03-08T11:19:04.703Z,95773.25
2023-03-08T11:21:41.106Z,95773.25
2023-03-08T11:24:32.770Z,95824.13
2023-03-08T11:27:16.327Z,95837.53
2023-03-08T11:29:57.159Z,95772.56
2023-03-08T11:32:42.695Z,95756.72
2023-03-08T11:35:19.618Z,95774.56
2023-03-08T11:37:55.104Z,95821.53
2023-03-08T11:40:28.364Z,95835.06
2023-03-08T11:43:14.889Z,95825.09
2023-03-08T11:45:48.856Z,95820.34
2023-03-08T11:48:39.448Z,95887.50
2023-03-08T11:51:11.922Z,95917.19
2023-03-08T11:53:51.787Z,95852.19
2023-03-08T11:56:41.407Z,95810.75
2023-03-08T11:59:18.299Z,95865.44
2023-03-08T12:01:50.824Z,95830.97
2023-03-08T12:04:25.166Z,95883.25
2023-03-08T12:06:56.560Z,95922.25
2023-03-08T12:09:28.716Z,95958.00
2023-03-08T12:12:04.430Z,95990.03
2023-03-08T12:14:36.004Z,96020.44
2023-03-08T12:17:13.616Z,96028.41
2023-03-08T12:19:44.437Z,96048.97
2023-03-08T12:22:44.618Z,96048.66
2023-03-08T12:25:21.980Z,95996.06
2023-03-08T12:27:54.446Z,95976.59
2023-03-08T12:30:34.670Z,95972.34
2023-03-08T12:33:04.248Z,95948.69
2023-03-08T12:35:34.606Z,95920.75
2023-03-08T12:38:05.129Z,95871.75
2023-03-08T12:40:39.726Z,95883.50
2023-03-08T12:43:10.844Z,95906.56
2023-03-08T12:45:44.334Z,95951.28
2023-03-08T12:48:27.410Z,95949.34
2023-03-08T12:51:00.597Z,95971.69
2023-03-08T12:53:36.188Z,95940.34
2023-03-08T12:56:07.470Z,95901.34
2023-03-08T12:58:38.924Z,95909.00
2023-03-08T13:01:28.136Z,95925.00
2023-03-08T13:03:55.902Z,95899.16
2023-03-08T13:07:17.481Z,95970.06
2023-03-08T13:09:54.117Z,95964.84
2023-03-08T13:12:29.401Z,95955.53
2023-03-08T13:15:17.357Z,95984.44
2023-03-08T13:17:53.213Z,96012.25
2023-03-08T13:20:24.202Z,96041.81
2023-03-08T13:23:06.037Z,96031.69
2023-03-08T13:25:55.877Z,96002.09
2023-03-08T13:28:30.446Z,96028.41
2023-03-08T13:31:16.825Z,96021.19
2023-03-08T13:33:49.813Z,96094.56
2023-03-08T13:36:20.810Z,96123.50
2023-03-08T13:38:58.655Z,96080.19
2023-03-08T13:41:37.036Z,96093.06
2023-03-08T13:44:07.277Z,96117.75
2023-03-08T13:46:36.148Z,96124.31
2023-03-08T13:49:05.317Z,96115.00
2023-03-08T13:51:33.230Z,96102.38
2023-03-08T13:54:01.862Z,96104.03
2023-03-08T13:56:29.834Z,96123.50
2023-03-08T13:59:00.934Z,96095.81
2023-03-08T14:01:28.825Z,96108.28
2023-03-08T14:03:58.481Z,96087.03
2023-03-08T14:06:30.088Z,96138.88
2023-03-08T14:09:02.170Z,96180.25
2023-03-08T14:11:32.080Z,96205.06
2023-03-08T14:14:03.018Z,96189.03
2023-03-08T14:16:33.719Z,96150.78
2023-03-08T14:19:11.677Z,96098.81
2023-03-08T14:21:50.702Z,96107.44
2023-03-08T14:24:21.651Z,96051.56
2023-03-08T14:26:56.288Z,96026.91
2023-03-08T14:29:25.527Z,96026.25
2023-03-08T14:32:04.601Z,95998.94
2023-03-08T14:34:36.082Z,95953.44
2023-03-08T14:37:08.153Z,96010.91
2023-03-08T14:39:37.834Z,95991.28
2023-03-08T14:42:19.111Z,95993.06
2023-03-08T14:44:53.503Z,95981.31
2023-03-08T14:47:24.471Z,95933.78
2023-03-08T14:49:56.853Z,95952.25
2023-03-08T14:52:29.119Z,95945.72
2023-03-08T14:54:56.928Z,95926.28
2023-03-08T14:57:26.986Z,95927.91
2023-03-08T15:00:02.769Z,95951.75
2023-03-08T15:02:30.634Z,95933.94
2023-03-08T15:04:58.399Z,95937.53
2023-03-08T15:07:36.992Z,95960.38
2023-03-08T15:10:07.670Z,95890.81
2023-03-08T15:12:35.572Z,95842.00
2023-03-08T15:15:03.361Z,95844.47
2023-03-08T15:17:31.065Z,95851.97
2023-03-08T15:19:59.032Z,95844.97
2023-03-08T15:22:28.235Z,95828.97
2023-03-08T15:24:56.007Z,95848.53
2023-03-08T15:27:23.868Z,95826.38
2023-03-08T15:29:51.649Z,95814.63
2023-03-08T15:32:19.449Z,95809.72
2023-03-08T15:34:47.343Z,95773.31
2023-03-08T15:37:15.690Z,95748.69
2023-03-08T15:39:45.271Z,95747.06
2023-03-08T15:42:17.797Z,95731.75
2023-03-08T15:44:45.584Z,95725.88
2023-03-08T15:47:13.297Z,95697.16
2023-03-08T15:49:41.020Z,95681.00
2023-03-08T15:52:09.034Z,95681.00
2023-03-08T15:54:37.007Z,95653.81
2023-03-08T15:57:06.434Z,95615.31
2023-03-08T15:59:34.212Z,95593.19
2023-03-08T16:02:02.429Z,95608.19
2023-03-08T16:04:30.710Z,95620.22
2023-03-08T16:06:58.505Z,95615.16
2023-03-08T16:09:26.317Z,95586.34
2023-03-08T16:11:54.073Z,95576.22
2023-03-08T16:14:23.148Z,95560.91
2023-03-08T16:16:50.959Z,95536.78
2023-03-08T16:19:18.811Z,95501.94
2023-03-08T16:21:46.556Z,95500.31
2023-03-08T16:24:14.406Z,95475.72
2023-03-08T16:26:42.229Z,95464.53
2023-03-08T16:29:10.150Z,95466.44
2023-03-08T16:31:39.636Z,95461.22
2023-03-08T16:34:07.718Z,95443.63
2023-03-08T16:36:35.460Z,95426.72
2023-03-08T16:39:04.059Z,95429.31
2023-03-08T16:41:31.921Z,95410.75
2023-03-08T16:44:00.062Z,95426.72
2023-03-08T16:46:29.083Z,95437.78
2023-03-08T16:48:59.600Z,95428.34
2023-03-08T16:51:30.570Z,95420.03
2023-03-08T16:53:58.365Z,95390.59
2023-03-08T16:56:29.236Z,95374.47
2023-03-08T16:59:00.398Z,95315.06
2023-03-08T17:01:28.910Z,95262.22
2023-03-08T17:03:59.367Z,95238.63
2023-03-08T17:06:29.514Z,95233.75
2023-03-08T17:08:58.620Z,95226.94
2023-03-08T17:11:27.995Z,95233.75
2023-03-08T17:13:59.736Z,95215.53
2023-03-08T17:16:29.657Z,95212.78
2023-03-08T17:18:59.365Z,95217.66
2023-03-08T17:21:27.988Z,95227.91
2023-03-08T17:23:56.220Z,95208.41
2023-03-08T17:26:24.716Z,95204.16
2023-03-08T17:28:54.134Z,95192.63
2023-03-08T17:31:24.170Z,95157.97
2023-03-08T17:33:52.452Z,95147.91
2023-03-08T17:36:21.662Z,95123.22
2023-03-08T17:38:49.724Z,95097.25
2023-03-08T17:41:17.843Z,95119.00
2023-03-08T17:43:45.591Z,95153.75
2023-03-08T17:46:15.725Z,95172.31
2023-03-08T17:48:44.227Z,95162.91
2023-03-08T17:51:14.012Z,95151.16
2023-03-08T17:53:43.615Z,95176.38
2023-03-08T17:56:13.200Z,95185.00
2023-03-08T17:58:41.800Z,95185.81
2023-03-08T18:01:10.949Z,95193.28
2023-03-08T18:03:39.118Z,95183.06
2023-03-08T18:06:07.819Z,95241.38
2023-03-08T18:08:36.994Z,95229.53
2023-03-08T18:11:06.418Z,95208.41
2023-03-08T18:13:34.144Z,95208.41
2023-03-08T18:16:03.534Z,95210.69
2023-03-08T18:18:31.535Z,95236.34
2023-03-08T18:21:12.205Z,95239.59
2023-03-08T18:23:42.800Z,95224.63
2023-03-08T18:26:12.533Z,95238.63
2023-03-08T18:28:40.786Z,95235.38
2023-03-08T18:31:09.588Z,95255.53
2023-03-08T18:33:37.622Z,95247.41
2023-03-08T18:36:06.058Z,95250.66
2023-03-08T18:38:34.275Z,95245.47
2023-03-08T18:41:11.379Z,95244.81
2023-03-08T18:43:40.960Z,95241.38
2023-03-08T18:46:10.392Z,95238.78
2023-03-08T18:48:38.312Z,95247.41
2023-03-08T18:51:06.675Z,95242.19
2023-03-08T18:53:34.752Z,95257.47
2023-03-08T18:56:04.112Z,95264.97
2023-03-08T18:58:32.785Z,95263.31
2023-03-08T19:01:03.003Z,95223.97
2023-03-08T19:03:31.762Z,95225.28
2023-03-08T19:06:02.856Z,95210.34
2023-03-08T19:08:30.739Z,95187.59
2023-03-08T19:10:58.936Z,95177.19
2023-03-08T19:13:26.729Z,95187.59
2023-03-08T19:15:54.427Z,95175.72
2023-03-08T19:18:25.817Z,95130.06
2023-03-08T19:20:53.592Z,95095.63
2023-03-08T19:23:21.473Z,95112.19
2023-03-08T19:26:06.665Z,95066.06
2023-03-08T19:28:34.465Z,95048.50
2023-03-08T19:31:02.311Z,95039.25
2023-03-08T19:33:31.949Z,95006.44
2023-03-08T19:35:59.900Z,94986.16
2023-03-08T19:38:28.087Z,94966.03
2023-03-08T19:40:55.980Z,94947.53
2023-03-08T19:43:23.875Z,94955.97
2023-03-08T19:45:51.723Z,94967.00
2023-03-08T19:48:19.851Z,94895.13
2023-03-08T19:50:49.030Z,94876.78
2023-03-08T19:53:16.886Z,94857.50
2023-03-08T19:55:50.345Z,94831.34
2023-03-08T19:58:18.503Z,94851.50
2023-03-08T20:00:46.539Z,94867.53
2023-03-08T20:03:16.514Z,94883.59
2023-03-08T20:05:46.463Z,94908.09
2023-03-08T20:08:15.813Z,94979.66
2023-03-08T20:10:43.696Z,94968.63
2023-03-08T20:13:11.445Z,94977.06
2023-03-08T20:15:39.213Z,94980.97
2023-03-08T20:18:07.081Z,94999.78
2023-03-08T20:20:34.858Z,95019.09
2023-03-08T20:23:02.653Z,95052.06
2023-03-08T20:25:32.024Z,95033.41
2023-03-08T20:27:59.836Z,95036.00
2023-03-08T20:30:28.195Z,95050.97
2023-03-08T20:32:56.639Z,95054.38
2023-03-08T20:35:24.488Z,95073.84
2023-03-08T20:37:52.378Z,95064.59
2023-03-08T20:40:20.883Z,95022.66
2023-03-08T20:42:50.403Z,95039.25
2023-03-08T20:45:18.308Z,95029.97
2023-03-08T20:47:46.645Z,95024.44
2023-03-08T20:50:14.411Z,94989.06
2023-03-08T20:52:42.198Z,94998.16
2023-03-08T20:55:10.348Z,94993.28
2023-03-08T20:57:38.294Z,94994.59
2023-03-08T21:00:09.650Z,94988.09
2023-03-08T21:02:37.712Z,94987.13
2023-03-08T21:05:06.468Z,94999.78
2023-03-08T21:07:35.015Z,94984.84
2023-03-08T21:10:02.870Z,94968.78
2023-03-08T21:12:30.597Z,94924.94
2023-03-08T21:14:58.932Z,94890.56
2023-03-08T21:17:29.875Z,94898.19
2023-03-08T21:19:58.086Z,94832.31
2023-03-08T21:22:25.848Z,94758.03
2023-03-08T21:24:53.679Z,94727.25
2023-03-08T21:27:21.456Z,94686.09
2023-03-08T21:29:49.342Z,94632.50
2023-03-08T21:32:17.104Z,94604.78
2023-03-08T21:34:46.167Z,94547.00
2023-03-08T21:37:13.997Z,94468.81
2023-03-08T21:39:41.685Z,94403.44
2023-03-08T21:42:09.465Z,94351.72
2023-03-08T21:44:37.345Z,94266.06
2023-03-08T21:47:05.318Z,94198.03
2023-03-08T21:49:35.051Z,94113.94
2023-03-08T21:52:04.970Z,94029.34
2023-03-08T21:54:33.165Z,93928.38
2023-03-08T21:57:01.234Z,93879.19
2023-03-08T21:59:29.389Z,93807.63
2023-03-08T22:01:58.831Z,93718.38
2023-03-08T22:04:27.717Z,93644.00
2023-03-08T22:06:55.907Z,93578.03
2023-03-08T22:09:26.852Z,93512.22
2023-03-08T22:11:57.001Z,93466.38
2023-03-08T22:14:24.945Z,93441.31
2023-03-08T22:16:54.651Z,93418.63
2023-03-08T22:19:22.668Z,93512.22
2023-03-08T22:21:50.630Z,93518.97
2023-03-08T22:24:18.749Z,93564.00
2023-03-08T22:26:48.084Z,93557.72
2023-03-08T22:29:15.941Z,93528.63
2023-03-08T22:31:43.852Z,93511.44
2023-03-08T22:34:11.728Z,93497.91
2023-03-08T22:36:39.468Z,93431.34
2023-03-08T22:39:07.476Z,93389.56
2023-03-08T22:41:35.409Z,93342.19
2023-03-08T22:44:04.705Z,93320.50
2023-03-08T22:46:32.460Z,93334.47
2023-03-08T22:49:04.686Z,93284.69
2023-03-08T22:51:32.582Z,93232.34
2023-03-08T22:54:03.963Z,93145.81
2023-03-08T22:56:33.325Z,93036.75
2023-03-08T22:59:01.754Z,93035.00
2023-03-08T23:01:32.973Z,93097.19
2023-03-08T23:04:02.636Z,93157.75
2023-03-08T23:06:31.945Z,93210.50
2023-03-08T23:09:01.275Z,93208.09
2023-03-08T23:11:29.753Z,93107.47
2023-03-08T23:13:57.716Z,92946.81
2023-03-08T23:16:26.218Z,92853.28
2023-03-08T23:18:56.569Z,92834.69
2023-03-08T23:21:27.437Z,92889.81
2023-03-08T23:23:55.572Z,92899.72
2023-03-08T23:26:26.923Z,92876.34
2023-03-08T23:28:55.458Z,92869.59
2023-03-08T23:31:26.372Z,92869.59
2023-03-08T23:33:56.929Z,92814.03
2023-03-08T23:36:26.597Z,92787.81
2023-03-08T23:38:55.266Z,92776.75
2023-03-08T23:41:23.162Z,92736.28
2023-03-08T23:43:55.014Z,92594.22
2023-03-08T23:46:23.156Z,92487.66
2023-03-08T23:48:51.035Z,92387.50
2023-03-08T23:51:21.299Z,92301.28
2023-03-08T23:53:49.994Z,92256.63
2023-03-08T23:56:26.314Z,92175.47
2023-03-08T23:58:55.349Z,92184.69
